sensor_id;sensor_type;location;lat;lon;timestamp;pressure;altitude;pressure_sealevel;temperature;humidity
18527;BME280;9393;42.158;24.748;2022-07-29T00:02:27;99585.56;;;27.06;48.87
18527;BME280;9393;42.158;24.748;2022-07-29T00:05:30;99575.56;;;27.19;48.40
18527;BME280;9393;42.158;24.748;2022-07-29T00:08:34;99589.06;;;27.29;48.45
18527;BME280;9393;42.158;24.748;2022-07-29T00:11:37;99587.13;;;27.24;48.63
18527;BME280;9393;42.158;24.748;2022-07-29T00:14:42;99588.09;;;26.96;49.60
18527;BME280;9393;42.158;24.748;2022-07-29T00:17:46;99589.97;;;26.79;50.12
18527;BME280;9393;42.158;24.748;2022-07-29T00:20:49;99593.66;;;27.11;49.22
18527;BME280;9393;42.158;24.748;2022-07-29T00:23:53;99587.22;;;26.91;49.95
18527;BME280;9393;42.158;24.748;2022-07-29T00:26:56;99588.06;;;27.35;49.15
18527;BME280;9393;42.158;24.748;2022-07-29T00:30:01;99584.41;;;27.41;49.02
18527;BME280;9393;42.158;24.748;2022-07-29T00:33:04;99586.09;;;27.25;49.65
18527;BME280;9393;42.158;24.748;2022-07-29T00:36:10;99582.00;;;27.01;50.22
18527;BME280;9393;42.158;24.748;2022-07-29T00:39:12;99583.34;;;27.20;50.00
18527;BME280;9393;42.158;24.748;2022-07-29T00:42:15;99581.66;;;26.92;50.79
18527;BME280;9393;42.158;24.748;2022-07-29T00:45:20;99585.09;;;27.09;50.51
18527;BME280;9393;42.158;24.748;2022-07-29T00:48:24;99589.41;;;26.94;51.15
18527;BME280;9393;42.158;24.748;2022-07-29T00:51:27;99588.28;;;26.73;51.77
18527;BME280;9393;42.158;24.748;2022-07-29T00:54:30;99587.69;;;27.04;51.03
18527;BME280;9393;42.158;24.748;2022-07-29T00:57:35;99588.31;;;27.11;51.20
18527;BME280;9393;42.158;24.748;2022-07-29T01:00:40;99578.25;;;27.19;50.73
18527;BME280;9393;42.158;24.748;2022-07-29T01:03:46;99587.50;;;27.11;51.03
18527;BME280;9393;42.158;24.748;2022-07-29T01:06:49;99584.31;;;26.92;52.06
18527;BME280;9393;42.158;24.748;2022-07-29T01:09:54;99584.09;;;27.16;51.40
18527;BME280;9393;42.158;24.748;2022-07-29T01:12:59;99589.41;;;27.54;50.20
18527;BME280;9393;42.158;24.748;2022-07-29T01:16:15;99582.88;;;27.45;50.75
18527;BME280;9393;42.158;24.748;2022-07-29T01:19:38;99590.13;;;27.44;51.14
18527;BME280;9393;42.158;24.748;2022-07-29T01:22:59;99590.44;;;27.09;52.38
18527;BME280;9393;42.158;24.748;2022-07-29T01:26:23;99583.22;;;27.32;52.06
18527;BME280;9393;42.158;24.748;2022-07-29T01:29:36;99588.63;;;27.58;51.36
18527;BME280;9393;42.158;24.748;2022-07-29T01:32:44;99584.59;;;27.56;51.15
18527;BME280;9393;42.158;24.748;2022-07-29T01:35:50;99584.19;;;27.69;50.67
18527;BME280;9393;42.158;24.748;2022-07-29T01:38:57;99598.81;;;27.83;50.63
18527;BME280;9393;42.158;24.748;2022-07-29T01:42:08;99588.91;;;27.84;50.49
18527;BME280;9393;42.158;24.748;2022-07-29T01:45:18;99587.06;;;27.84;50.76
18527;BME280;9393;42.158;24.748;2022-07-29T01:48:26;99577.13;;;27.58;51.27
18527;BME280;9393;42.158;24.748;2022-07-29T01:51:37;99573.25;;;27.27;51.90
18527;BME280;9393;42.158;24.748;2022-07-29T01:54:47;99576.22;;;27.31;51.91
18527;BME280;9393;42.158;24.748;2022-07-29T01:57:53;99575.69;;;27.29;52.01
18527;BME280;9393;42.158;24.748;2022-07-29T02:00:59;99584.72;;;27.23;52.21
18527;BME280;9393;42.158;24.748;2022-07-29T02:04:06;99580.31;;;27.33;51.83
18527;BME280;9393;42.158;24.748;2022-07-29T02:07:15;99582.22;;;27.38;51.80
18527;BME280;9393;42.158;24.748;2022-07-29T02:10:22;99577.66;;;26.95;52.91
18527;BME280;9393;42.158;24.748;2022-07-29T02:13:27;99574.19;;;27.16;52.37
18527;BME280;9393;42.158;24.748;2022-07-29T02:16:34;99578.25;;;27.40;51.43
18527;BME280;9393;42.158;24.748;2022-07-29T02:19:43;99569.50;;;27.28;51.99
18527;BME280;9393;42.158;24.748;2022-07-29T02:22:49;99574.06;;;27.28;51.83
18527;BME280;9393;42.158;24.748;2022-07-29T02:25:54;99565.03;;;27.34;51.79
18527;BME280;9393;42.158;24.748;2022-07-29T02:28:58;99569.59;;;27.33;51.55
18527;BME280;9393;42.158;24.748;2022-07-29T02:32:06;99561.38;;;27.40;50.77
18527;BME280;9393;42.158;24.748;2022-07-29T02:35:14;99567.63;;;27.07;51.54
18527;BME280;9393;42.158;24.748;2022-07-29T02:38:18;99558.22;;;26.66;52.63
18527;BME280;9393;42.158;24.748;2022-07-29T02:41:42;99568.34;;;26.81;52.34
18527;BME280;9393;42.158;24.748;2022-07-29T02:44:46;99560.22;;;27.14;51.27
18527;BME280;9393;42.158;24.748;2022-07-29T02:47:51;99559.88;;;27.05;51.34
18527;BME280;9393;42.158;24.748;2022-07-29T02:51:04;99562.97;;;26.97;51.57
18527;BME280;9393;42.158;24.748;2022-07-29T02:54:09;99569.50;;;27.06;51.15
18527;BME280;9393;42.158;24.748;2022-07-29T02:57:19;99566.13;;;26.94;51.24
18527;BME280;9393;42.158;24.748;2022-07-29T03:00:27;99571.06;;;27.24;50.26
18527;BME280;9393;42.158;24.748;2022-07-29T03:03:36;99564.00;;;27.13;50.52
18527;BME280;9393;42.158;24.748;2022-07-29T03:06:41;99570.19;;;26.97;50.82
18527;BME280;9393;42.158;24.748;2022-07-29T03:09:46;99571.53;;;27.16;50.10
18527;BME280;9393;42.158;24.748;2022-07-29T03:12:50;99569.47;;;27.23;49.81
18527;BME280;9393;42.158;24.748;2022-07-29T03:15:54;99572.50;;;27.32;49.57
18527;BME280;9393;42.158;24.748;2022-07-29T03:19:00;99579.91;;;27.03;50.47
18527;BME280;9393;42.158;24.748;2022-07-29T03:22:04;99579.38;;;26.84;50.75
18527;BME280;9393;42.158;24.748;2022-07-29T03:25:08;99577.19;;;26.81;50.86
18527;BME280;9393;42.158;24.748;2022-07-29T03:28:11;99587.38;;;27.01;50.24
18527;BME280;9393;42.158;24.748;2022-07-29T03:31:16;99592.41;;;26.97;50.14
18527;BME280;9393;42.158;24.748;2022-07-29T03:34:21;99596.84;;;27.08;50.10
18527;BME280;9393;42.158;24.748;2022-07-29T03:37:25;99592.34;;;27.14;49.66
18527;BME280;9393;42.158;24.748;2022-07-29T03:40:32;99596.44;;;27.00;50.21
18527;BME280;9393;42.158;24.748;2022-07-29T03:43:38;99600.47;;;27.19;49.67
18527;BME280;9393;42.158;24.748;2022-07-29T03:46:51;99602.09;;;27.20;49.02
18527;BME280;9393;42.158;24.748;2022-07-29T03:50:01;99599.66;;;27.62;47.81
18527;BME280;9393;42.158;24.748;2022-07-29T03:53:05;99606.75;;;27.30;48.37
18527;BME280;9393;42.158;24.748;2022-07-29T03:56:09;99596.56;;;26.88;49.40
18527;BME280;9393;42.158;24.748;2022-07-29T03:59:16;99606.00;;;27.13;49.06
18527;BME280;9393;42.158;24.748;2022-07-29T04:02:21;99604.00;;;27.25;48.84
18527;BME280;9393;42.158;24.748;2022-07-29T04:05:33;99605.13;;;27.72;48.07
18527;BME280;9393;42.158;24.748;2022-07-29T04:08:36;99609.13;;;27.96;47.75
18527;BME280;9393;42.158;24.748;2022-07-29T04:11:40;99605.09;;;27.45;48.72
18527;BME280;9393;42.158;24.748;2022-07-29T04:15:04;99619.63;;;27.98;47.75
18527;BME280;9393;42.158;24.748;2022-07-29T04:18:07;99616.06;;;27.66;49.01
18527;BME280;9393;42.158;24.748;2022-07-29T04:21:12;99620.34;;;27.23;50.15
18527;BME280;9393;42.158;24.748;2022-07-29T04:24:15;99620.13;;;27.68;49.14
18527;BME280;9393;42.158;24.748;2022-07-29T04:27:19;99618.22;;;27.69;49.26
18527;BME280;9393;42.158;24.748;2022-07-29T04:30:23;99624.34;;;27.64;49.65
18527;BME280;9393;42.158;24.748;2022-07-29T04:33:26;99621.25;;;28.26;48.15
18527;BME280;9393;42.158;24.748;2022-07-29T04:36:31;99626.34;;;28.27;48.04
18527;BME280;9393;42.158;24.748;2022-07-29T04:39:34;99618.13;;;28.34;47.41
18527;BME280;9393;42.158;24.748;2022-07-29T04:42:37;99622.84;;;28.58;47.11
18527;BME280;9393;42.158;24.748;2022-07-29T04:45:47;99622.91;;;28.32;47.91
18527;BME280;9393;42.158;24.748;2022-07-29T04:48:51;99637.91;;;28.59;46.99
18527;BME280;9393;42.158;24.748;2022-07-29T04:51:56;99633.63;;;28.95;46.11
18527;BME280;9393;42.158;24.748;2022-07-29T04:54:59;99634.78;;;28.68;46.11
18527;BME280;9393;42.158;24.748;2022-07-29T04:58:03;99635.97;;;28.82;46.11
18527;BME280;9393;42.158;24.748;2022-07-29T05:01:06;99633.22;;;29.19;45.43
18527;BME280;9393;42.158;24.748;2022-07-29T05:04:09;99638.13;;;29.27;44.99
18527;BME280;9393;42.158;24.748;2022-07-29T05:07:15;99637.69;;;29.55;44.81
18527;BME280;9393;42.158;24.748;2022-07-29T05:10:18;99640.06;;;28.94;46.23
18527;BME280;9393;42.158;24.748;2022-07-29T05:13:22;99641.47;;;29.02;45.91
18527;BME280;9393;42.158;24.748;2022-07-29T05:16:25;99645.28;;;29.63;44.61
18527;BME280;9393;42.158;24.748;2022-07-29T05:19:29;99645.09;;;29.28;44.68
18527;BME280;9393;42.158;24.748;2022-07-29T05:22:33;99643.75;;;28.83;45.91
18527;BME280;9393;42.158;24.748;2022-07-29T05:25:37;99641.00;;;29.72;44.18
18527;BME280;9393;42.158;24.748;2022-07-29T05:28:45;99653.44;;;29.93;44.35
18527;BME280;9393;42.158;24.748;2022-07-29T05:31:48;99649.75;;;30.10;43.88
18527;BME280;9393;42.158;24.748;2022-07-29T05:34:53;99657.81;;;30.20;43.96
18527;BME280;9393;42.158;24.748;2022-07-29T05:37:58;99653.28;;;30.30;43.24
18527;BME280;9393;42.158;24.748;2022-07-29T05:41:02;99654.03;;;30.11;43.66
18527;BME280;9393;42.158;24.748;2022-07-29T05:44:05;99647.84;;;30.15;42.57
18527;BME280;9393;42.158;24.748;2022-07-29T05:47:09;99652.72;;;30.13;42.80
18527;BME280;9393;42.158;24.748;2022-07-29T05:50:13;99656.44;;;29.92;43.07
18527;BME280;9393;42.158;24.748;2022-07-29T05:53:18;99668.13;;;30.68;42.15
18527;BME280;9393;42.158;24.748;2022-07-29T05:56:22;99676.97;;;31.04;41.89
18527;BME280;9393;42.158;24.748;2022-07-29T05:59:26;99674.53;;;31.13;42.06
18527;BME280;9393;42.158;24.748;2022-07-29T06:02:31;99671.84;;;30.62;42.22
18527;BME280;9393;42.158;24.748;2022-07-29T06:05:34;99665.56;;;31.42;40.76
18527;BME280;9393;42.158;24.748;2022-07-29T06:08:39;99670.19;;;31.22;41.29
18527;BME280;9393;42.158;24.748;2022-07-29T06:11:43;99671.25;;;31.31;41.06
18527;BME280;9393;42.158;24.748;2022-07-29T06:14:46;99665.72;;;31.76;40.87
18527;BME280;9393;42.158;24.748;2022-07-29T06:17:54;99672.72;;;31.82;41.18
18527;BME280;9393;42.158;24.748;2022-07-29T06:21:00;99669.06;;;32.12;40.75
18527;BME280;9393;42.158;24.748;2022-07-29T06:24:06;99666.72;;;31.90;40.99
18527;BME280;9393;42.158;24.748;2022-07-29T06:27:10;99663.09;;;32.15;40.79
18527;BME280;9393;42.158;24.748;2022-07-29T06:30:13;99667.44;;;32.11;41.29
18527;BME280;9393;42.158;24.748;2022-07-29T06:33:17;99664.97;;;32.20;40.89
18527;BME280;9393;42.158;24.748;2022-07-29T06:36:21;99667.50;;;32.40;40.11
18527;BME280;9393;42.158;24.748;2022-07-29T06:39:27;99663.28;;;32.29;40.35
18527;BME280;9393;42.158;24.748;2022-07-29T06:42:30;99665.88;;;32.44;40.05
18527;BME280;9393;42.158;24.748;2022-07-29T06:45:34;99669.81;;;32.62;40.13
18527;BME280;9393;42.158;24.748;2022-07-29T06:48:38;99664.06;;;32.97;39.21
18527;BME280;9393;42.158;24.748;2022-07-29T06:51:42;99659.53;;;32.64;39.94
18527;BME280;9393;42.158;24.748;2022-07-29T06:54:47;99660.78;;;32.37;40.02
18527;BME280;9393;42.158;24.748;2022-07-29T06:57:51;99662.72;;;32.99;38.96
18527;BME280;9393;42.158;24.748;2022-07-29T07:00:55;99654.97;;;32.88;39.41
18527;BME280;9393;42.158;24.748;2022-07-29T07:03:58;99655.91;;;33.02;38.93
18527;BME280;9393;42.158;24.748;2022-07-29T07:07:02;99659.75;;;33.25;38.37
18527;BME280;9393;42.158;24.748;2022-07-29T07:10:08;99649.03;;;32.18;39.18
18527;BME280;9393;42.158;24.748;2022-07-29T07:13:11;99660.81;;;31.83;40.12
18527;BME280;9393;42.158;24.748;2022-07-29T07:16:15;99652.50;;;32.91;37.93
18527;BME280;9393;42.158;24.748;2022-07-29T07:19:18;99648.56;;;33.08;37.73
18527;BME280;9393;42.158;24.748;2022-07-29T07:22:22;99650.09;;;32.61;38.56
18527;BME280;9393;42.158;24.748;2022-07-29T07:25:26;99655.84;;;33.12;38.10
18527;BME280;9393;42.158;24.748;2022-07-29T07:28:30;99655.09;;;33.30;37.29
18527;BME280;9393;42.158;24.748;2022-07-29T07:31:33;99649.03;;;33.15;37.71
18527;BME280;9393;42.158;24.748;2022-07-29T07:34:37;99660.22;;;33.32;37.43
18527;BME280;9393;42.158;24.748;2022-07-29T07:37:40;99653.88;;;33.65;37.44
18527;BME280;9393;42.158;24.748;2022-07-29T07:40:45;99649.66;;;33.96;36.79
18527;BME280;9393;42.158;24.748;2022-07-29T07:43:49;99650.53;;;33.49;37.78
18527;BME280;9393;42.158;24.748;2022-07-29T07:46:53;99652.38;;;33.78;36.60
18527;BME280;9393;42.158;24.748;2022-07-29T07:49:56;99650.31;;;33.70;36.51
18527;BME280;9393;42.158;24.748;2022-07-29T07:52:59;99648.38;;;34.13;36.56
18527;BME280;9393;42.158;24.748;2022-07-29T07:56:05;99649.72;;;33.73;35.58
18527;BME280;9393;42.158;24.748;2022-07-29T07:59:12;99645.84;;;33.97;35.13
18527;BME280;9393;42.158;24.748;2022-07-29T08:02:15;99644.53;;;33.76;34.39
18527;BME280;9393;42.158;24.748;2022-07-29T08:05:19;99639.94;;;33.77;34.14
18527;BME280;9393;42.158;24.748;2022-07-29T08:08:22;99633.38;;;34.20;34.07
18527;BME280;9393;42.158;24.748;2022-07-29T08:11:27;99625.63;;;33.95;33.71
18527;BME280;9393;42.158;24.748;2022-07-29T08:14:35;99639.19;;;34.65;33.97
18527;BME280;9393;42.158;24.748;2022-07-29T08:17:39;99632.56;;;34.20;33.76
18527;BME280;9393;42.158;24.748;2022-07-29T08:20:43;99634.03;;;34.63;32.43
18527;BME280;9393;42.158;24.748;2022-07-29T08:23:47;99633.97;;;34.49;32.58
18527;BME280;9393;42.158;24.748;2022-07-29T08:27:04;99628.13;;;34.42;31.59
18527;BME280;9393;42.158;24.748;2022-07-29T08:30:27;99632.78;;;34.74;31.33
18527;BME280;9393;42.158;24.748;2022-07-29T08:33:31;99624.72;;;34.69;29.47
18527;BME280;9393;42.158;24.748;2022-07-29T08:36:35;99622.38;;;34.95;29.60
18527;BME280;9393;42.158;24.748;2022-07-29T08:39:38;99621.94;;;34.88;29.36
18527;BME280;9393;42.158;24.748;2022-07-29T08:42:43;99613.34;;;34.54;29.62
18527;BME280;9393;42.158;24.748;2022-07-29T08:45:48;99616.53;;;35.02;27.82
18527;BME280;9393;42.158;24.748;2022-07-29T08:48:52;99610.63;;;34.54;29.00
18527;BME280;9393;42.158;24.748;2022-07-29T08:51:57;99612.25;;;35.14;28.76
18527;BME280;9393;42.158;24.748;2022-07-29T08:55:01;99609.47;;;34.73;28.93
18527;BME280;9393;42.158;24.748;2022-07-29T08:58:07;99605.31;;;35.22;27.86
18527;BME280;9393;42.158;24.748;2022-07-29T09:01:14;99602.88;;;35.07;28.30
18527;BME280;9393;42.158;24.748;2022-07-29T09:04:21;99592.25;;;35.51;28.48
18527;BME280;9393;42.158;24.748;2022-07-29T09:07:27;99588.22;;;35.62;28.05
18527;BME280;9393;42.158;24.748;2022-07-29T09:10:35;99594.19;;;35.37;28.28
18527;BME280;9393;42.158;24.748;2022-07-29T09:13:40;99590.84;;;34.99;27.86
18527;BME280;9393;42.158;24.748;2022-07-29T09:16:49;99588.13;;;35.40;26.88
18527;BME280;9393;42.158;24.748;2022-07-29T09:20:08;99585.19;;;35.64;26.41
18527;BME280;9393;42.158;24.748;2022-07-29T09:23:12;99591.03;;;35.57;26.92
18527;BME280;9393;42.158;24.748;2022-07-29T09:26:27;99581.19;;;35.61;27.82
18527;BME280;9393;42.158;24.748;2022-07-29T09:29:32;99582.16;;;35.65;27.44
18527;BME280;9393;42.158;24.748;2022-07-29T09:32:54;99568.78;;;36.05;27.08
18527;BME280;9393;42.158;24.748;2022-07-29T09:35:59;99572.22;;;35.96;27.46
18527;BME280;9393;42.158;24.748;2022-07-29T09:39:04;99569.50;;;35.74;26.90
18527;BME280;9393;42.158;24.748;2022-07-29T09:42:08;99564.97;;;35.34;26.57
18527;BME280;9393;42.158;24.748;2022-07-29T09:45:13;99563.06;;;35.70;27.75
18527;BME280;9393;42.158;24.748;2022-07-29T09:48:28;99562.56;;;35.19;27.92
18527;BME280;9393;42.158;24.748;2022-07-29T09:51:33;99563.91;;;36.37;27.44
18527;BME280;9393;42.158;24.748;2022-07-29T09:54:39;99563.56;;;36.30;27.04
18527;BME280;9393;42.158;24.748;2022-07-29T09:57:43;99554.63;;;36.38;25.27
18527;BME280;9393;42.158;24.748;2022-07-29T10:00:49;99547.00;;;36.18;25.69
18527;BME280;9393;42.158;24.748;2022-07-29T10:03:53;99555.50;;;36.03;26.64
18527;BME280;9393;42.158;24.748;2022-07-29T10:06:58;99548.81;;;36.23;26.10
18527;BME280;9393;42.158;24.748;2022-07-29T10:10:06;99550.66;;;36.67;26.18
18527;BME280;9393;42.158;24.748;2022-07-29T10:13:11;99551.47;;;36.45;25.46
18527;BME280;9393;42.158;24.748;2022-07-29T10:16:18;99549.25;;;36.47;26.26
18527;BME280;9393;42.158;24.748;2022-07-29T10:19:22;99551.19;;;36.86;25.58
18527;BME280;9393;42.158;24.748;2022-07-29T10:22:25;99543.59;;;36.57;24.39
18527;BME280;9393;42.158;24.748;2022-07-29T10:25:49;99543.38;;;36.23;25.33
18527;BME280;9393;42.158;24.748;2022-07-29T10:28:53;99543.78;;;36.69;24.70
18527;BME280;9393;42.158;24.748;2022-07-29T10:32:19;99535.09;;;36.59;25.70
18527;BME280;9393;42.158;24.748;2022-07-29T10:35:40;99530.91;;;36.83;25.31
18527;BME280;9393;42.158;24.748;2022-07-29T10:38:55;99533.44;;;36.71;25.74
18527;BME280;9393;42.158;24.748;2022-07-29T10:42:08;99533.47;;;36.88;25.84
18527;BME280;9393;42.158;24.748;2022-07-29T10:45:17;99525.13;;;36.45;26.47
18527;BME280;9393;42.158;24.748;2022-07-29T10:48:22;99515.91;;;36.55;25.78
18527;BME280;9393;42.158;24.748;2022-07-29T10:51:59;99509.63;;;36.46;25.63
18527;BME280;9393;42.158;24.748;2022-07-29T10:55:04;99506.91;;;36.15;26.03
18527;BME280;9393;42.158;24.748;2022-07-29T10:58:17;99509.53;;;36.29;26.27
18527;BME280;9393;42.158;24.748;2022-07-29T11:01:29;99498.84;;;36.55;26.34
18527;BME280;9393;42.158;24.748;2022-07-29T11:05:00;99499.91;;;36.54;26.92
18527;BME280;9393;42.158;24.748;2022-07-29T11:08:32;99492.53;;;36.85;25.79
18527;BME280;9393;42.158;24.748;2022-07-29T11:11:35;99481.34;;;36.86;26.12
18527;BME280;9393;42.158;24.748;2022-07-29T11:14:56;99483.66;;;37.02;26.20
18527;BME280;9393;42.158;24.748;2022-07-29T11:18:05;99485.13;;;37.25;25.54
18527;BME280;9393;42.158;24.748;2022-07-29T11:21:37;99486.63;;;36.91;25.90
18527;BME280;9393;42.158;24.748;2022-07-29T11:25:13;99469.81;;;36.89;26.51
18527;BME280;9393;42.158;24.748;2022-07-29T11:28:42;99474.03;;;36.95;26.52
18527;BME280;9393;42.158;24.748;2022-07-29T11:31:53;99467.41;;;36.71;27.39
18527;BME280;9393;42.158;24.748;2022-07-29T11:35:18;99472.47;;;37.12;26.22
18527;BME280;9393;42.158;24.748;2022-07-29T11:38:41;99468.00;;;36.59;27.18
18527;BME280;9393;42.158;24.748;2022-07-29T11:41:44;99463.38;;;36.29;27.55
18527;BME280;9393;42.158;24.748;2022-07-29T11:44:54;99450.94;;;36.67;27.19
18527;BME280;9393;42.158;24.748;2022-07-29T11:47:59;99452.09;;;37.01;27.16
18527;BME280;9393;42.158;24.748;2022-07-29T11:51:22;99440.97;;;37.19;26.87
18527;BME280;9393;42.158;24.748;2022-07-29T11:54:36;99440.16;;;37.19;27.07
18527;BME280;9393;42.158;24.748;2022-07-29T11:58:00;99434.06;;;37.39;26.79
18527;BME280;9393;42.158;24.748;2022-07-29T12:01:05;99425.13;;;37.30;26.31
18527;BME280;9393;42.158;24.748;2022-07-29T12:04:09;99431.84;;;37.24;26.77
18527;BME280;9393;42.158;24.748;2022-07-29T12:07:14;99427.53;;;37.14;26.18
18527;BME280;9393;42.158;24.748;2022-07-29T12:10:19;99428.09;;;36.77;26.48
18527;BME280;9393;42.158;24.748;2022-07-29T12:13:38;99419.69;;;37.13;26.32
18527;BME280;9393;42.158;24.748;2022-07-29T12:16:42;99418.78;;;36.61;27.79
18527;BME280;9393;42.158;24.748;2022-07-29T12:19:45;99421.03;;;36.67;26.75
18527;BME280;9393;42.158;24.748;2022-07-29T12:22:51;99419.59;;;36.22;25.88
18527;BME280;9393;42.158;24.748;2022-07-29T12:25:58;99419.13;;;36.68;25.88
18527;BME280;9393;42.158;24.748;2022-07-29T12:29:02;99421.38;;;36.83;25.95
18527;BME280;9393;42.158;24.748;2022-07-29T12:32:16;99421.56;;;36.95;25.69
18527;BME280;9393;42.158;24.748;2022-07-29T12:35:20;99418.03;;;36.77;25.89
18527;BME280;9393;42.158;24.748;2022-07-29T12:38:24;99408.91;;;36.90;26.35
18527;BME280;9393;42.158;24.748;2022-07-29T12:41:30;99407.94;;;36.61;26.79
18527;BME280;9393;42.158;24.748;2022-07-29T12:44:47;99395.28;;;36.56;26.29
18527;BME280;9393;42.158;24.748;2022-07-29T12:47:51;99397.25;;;36.99;26.71
18527;BME280;9393;42.158;24.748;2022-07-29T12:50:56;99395.81;;;36.75;26.28
18527;BME280;9393;42.158;24.748;2022-07-29T12:54:05;99380.16;;;36.98;25.80
18527;BME280;9393;42.158;24.748;2022-07-29T12:57:10;99369.13;;;36.94;25.94
18527;BME280;9393;42.158;24.748;2022-07-29T13:00:22;99380.47;;;36.88;26.15
18527;BME280;9393;42.158;24.748;2022-07-29T13:03:26;99374.38;;;36.82;26.93
18527;BME280;9393;42.158;24.748;2022-07-29T13:06:38;99377.47;;;36.41;26.91
18527;BME280;9393;42.158;24.748;2022-07-29T13:09:43;99378.59;;;36.01;27.02
18527;BME280;9393;42.158;24.748;2022-07-29T13:13:08;99362.09;;;36.28;27.07
18527;BME280;9393;42.158;24.748;2022-07-29T13:16:12;99362.94;;;36.46;26.87
18527;BME280;9393;42.158;24.748;2022-07-29T13:19:16;99355.56;;;36.38;26.86
18527;BME280;9393;42.158;24.748;2022-07-29T13:22:22;99348.81;;;37.01;27.36
18527;BME280;9393;42.158;24.748;2022-07-29T13:25:27;99341.44;;;36.84;26.64
18527;BME280;9393;42.158;24.748;2022-07-29T13:28:32;99350.13;;;36.38;27.03
18527;BME280;9393;42.158;24.748;2022-07-29T13:31:36;99345.38;;;36.52;27.19
18527;BME280;9393;42.158;24.748;2022-07-29T13:34:39;99338.81;;;36.44;27.47
18527;BME280;9393;42.158;24.748;2022-07-29T13:37:42;99332.66;;;36.61;27.13
18527;BME280;9393;42.158;24.748;2022-07-29T13:40:46;99331.19;;;36.55;27.38
18527;BME280;9393;42.158;24.748;2022-07-29T13:43:51;99337.53;;;36.33;27.35
18527;BME280;9393;42.158;24.748;2022-07-29T13:46:54;99324.38;;;36.18;27.10
18527;BME280;9393;42.158;24.748;2022-07-29T13:49:58;99330.03;;;36.30;26.74
18527;BME280;9393;42.158;24.748;2022-07-29T13:53:01;99325.56;;;36.43;26.97
18527;BME280;9393;42.158;24.748;2022-07-29T13:56:05;99314.38;;;36.53;27.05
18527;BME280;9393;42.158;24.748;2022-07-29T13:59:10;99312.84;;;36.78;27.11
18527;BME280;9393;42.158;24.748;2022-07-29T14:02:13;99312.13;;;36.38;27.23
18527;BME280;9393;42.158;24.748;2022-07-29T14:05:17;99309.44;;;36.46;27.39
18527;BME280;9393;42.158;24.748;2022-07-29T14:08:20;99308.59;;;36.29;27.53
18527;BME280;9393;42.158;24.748;2022-07-29T14:11:24;99303.34;;;36.41;27.44
18527;BME280;9393;42.158;24.748;2022-07-29T14:14:29;99313.94;;;36.60;27.02
18527;BME280;9393;42.158;24.748;2022-07-29T14:17:34;99313.06;;;36.25;26.73
18527;BME280;9393;42.158;24.748;2022-07-29T14:20:37;99306.69;;;36.38;26.18
18527;BME280;9393;42.158;24.748;2022-07-29T14:23:40;99301.31;;;36.64;25.91
18527;BME280;9393;42.158;24.748;2022-07-29T14:26:44;99300.84;;;36.96;26.19
18527;BME280;9393;42.158;24.748;2022-07-29T14:29:49;99292.25;;;37.03;25.70
18527;BME280;9393;42.158;24.748;2022-07-29T14:32:53;99302.44;;;36.97;27.14
18527;BME280;9393;42.158;24.748;2022-07-29T14:35:56;99311.72;;;37.22;26.04
18527;BME280;9393;42.158;24.748;2022-07-29T14:39:02;99300.22;;;37.08;26.11
18527;BME280;9393;42.158;24.748;2022-07-29T14:42:06;99301.97;;;36.86;25.67
18527;BME280;9393;42.158;24.748;2022-07-29T14:45:11;99294.78;;;36.65;26.00
18527;BME280;9393;42.158;24.748;2022-07-29T14:48:14;99297.78;;;36.97;25.72
18527;BME280;9393;42.158;24.748;2022-07-29T14:51:18;99288.50;;;36.47;26.63
18527;BME280;9393;42.158;24.748;2022-07-29T14:54:21;99284.06;;;36.68;26.17
18527;BME280;9393;42.158;24.748;2022-07-29T14:57:24;99286.97;;;36.72;26.68
18527;BME280;9393;42.158;24.748;2022-07-29T15:00:29;99288.38;;;36.61;26.51
18527;BME280;9393;42.158;24.748;2022-07-29T15:03:35;99284.63;;;36.22;27.11
18527;BME280;9393;42.158;24.748;2022-07-29T15:06:38;99291.00;;;36.18;26.97
18527;BME280;9393;42.158;24.748;2022-07-29T15:09:42;99285.44;;;36.31;26.62
18527;BME280;9393;42.158;24.748;2022-07-29T15:12:50;99277.94;;;36.37;27.50
18527;BME280;9393;42.158;24.748;2022-07-29T15:15:55;99287.22;;;36.53;27.01
18527;BME280;9393;42.158;24.748;2022-07-29T15:19:04;99272.56;;;35.97;26.94
18527;BME280;9393;42.158;24.748;2022-07-29T15:22:09;99279.19;;;36.31;27.04
18527;BME280;9393;42.158;24.748;2022-07-29T15:25:12;99277.97;;;36.54;26.25
18527;BME280;9393;42.158;24.748;2022-07-29T15:28:16;99271.44;;;36.55;26.38
18527;BME280;9393;42.158;24.748;2022-07-29T15:31:21;99280.31;;;36.21;27.03
18527;BME280;9393;42.158;24.748;2022-07-29T15:34:24;99275.44;;;35.92;26.92
18527;BME280;9393;42.158;24.748;2022-07-29T15:37:27;99262.56;;;35.67;27.90
18527;BME280;9393;42.158;24.748;2022-07-29T15:40:50;99273.06;;;36.00;27.84
18527;BME280;9393;42.158;24.748;2022-07-29T15:43:53;99274.13;;;35.59;27.28
18527;BME280;9393;42.158;24.748;2022-07-29T15:46:58;99270.75;;;35.84;27.44
18527;BME280;9393;42.158;24.748;2022-07-29T15:50:08;99267.66;;;35.69;27.64
18527;BME280;9393;42.158;24.748;2022-07-29T15:53:16;99271.06;;;35.83;27.76
18527;BME280;9393;42.158;24.748;2022-07-29T15:56:20;99269.00;;;35.80;27.99
18527;BME280;9393;42.158;24.748;2022-07-29T15:59:23;99272.78;;;35.39;28.42
18527;BME280;9393;42.158;24.748;2022-07-29T16:02:28;99260.50;;;35.42;28.82
18527;BME280;9393;42.158;24.748;2022-07-29T16:05:32;99255.34;;;35.32;29.32
18527;BME280;9393;42.158;24.748;2022-07-29T16:08:35;99254.84;;;35.08;29.05
18527;BME280;9393;42.158;24.748;2022-07-29T16:11:39;99252.41;;;35.20;29.29
18527;BME280;9393;42.158;24.748;2022-07-29T16:14:43;99251.19;;;35.34;29.37
18527;BME280;9393;42.158;24.748;2022-07-29T16:17:47;99253.47;;;35.41;29.01
18527;BME280;9393;42.158;24.748;2022-07-29T16:20:51;99248.22;;;35.44;28.75
18527;BME280;9393;42.158;24.748;2022-07-29T16:23:55;99252.09;;;35.21;29.38
18527;BME280;9393;42.158;24.748;2022-07-29T16:26:58;99261.78;;;35.14;29.32
18527;BME280;9393;42.158;24.748;2022-07-29T16:30:03;99256.53;;;34.95;29.22